Airfield :







YOU CAN JOIN US ON...

 
LOGIN :

Register | Disclaimer

   EN    FR    IT 

 









Legend :    VFR   Marginal VFR   IFR   Intensive IFR   Very Intensive IFR
Visi :
Ceiling :
>= 8 km
>= 3000ft
5 to 8 km
1000 to 3000 ft
1500m to 5 km
500 to 1000 ft
800 to 1500m
200 to 500 ft
< 800m
< 200 ft
Symbols :   Thunderstorms  Fog  Heavy snow  Heavy precipitations  Wind > 20 kt






- Airport Elevation : 357 ft
- IATA code : YSJ


CYSJ - Saint John

CURRENT METAR :
  • 240900Z 12005KT 090V150 15SM SCT030 OVC064 17/17 A3023 RMK SC4SC4 SLP239 DENSITY ALT 400FT

EXPIRED METARs :
  • 240800Z 00000KT 15SM FEW024 SCT034 OVC061 17/17 A3023 RMK SC1SC2SC5 SLP240 DENSITY ALT 400FT
  • 240700Z 00000KT 15SM SCT021 OVC065 17/17 A3024 RMK SC3SC5 SLP242

TAF TAF CYSJ
Valid from the 24 at 06:00 until the 24 at 18:00 UTC


240538Z 2406/2418 VRB03KT P6SM FEW015
TEMPO 2406/2409 21/2SM BR FEW006 BKN015
PROB40 2406/2409 BKN006
FM240900 10005KT 2SM BR BKN008 OVC060
TEMPO 2409/2413 P6SM NSW SCT008 BKN060
PROB40 2409/2413 11/2SM BR BKN005
FM241300 12008KT P6SM SCT008 BKN020 RMK NXT FCST BY 241200Z
CZQM FIR / North America



MET'MAP, your aeronautical weather chart ! - Copyright ORBIFLY December 2007 - Disclaimer

ORBIFLY MET'MAP TEAM :

Programming & Development : Alexandra Zaïnal
Concept & original design : Baudouin d'Aumeries
Assistance for programming : Marc-Olivier Méhu
Technical & hardware support : Manuel Goepfert

Contact : metmap@orbifly.com




SOURCES & CREDITS :

   NOAA